sensor_id;sensor_type;location;lat;lon;timestamp;P1;durP1;ratioP1;P2;durP2;ratioP2
40959;SDS011;27842;52.272;8.052;2024-01-15T06:24:37;8.40;;;1.90;;
40959;SDS011;27842;52.272;8.052;2024-01-15T06:27:11;7.33;;;1.63;;
40959;SDS011;27842;52.272;8.052;2024-01-15T06:29:37;10.13;;;2.10;;
40959;SDS011;27842;52.272;8.052;2024-01-15T06:32:04;8.60;;;1.90;;
40959;SDS011;27842;52.272;8.052;2024-01-15T06:34:29;10.00;;;1.90;;
40959;SDS011;27842;52.272;8.052;2024-01-15T06:36:55;7.50;;;1.70;;
40959;SDS011;27842;52.272;8.052;2024-01-15T06:39:21;11.30;;;2.10;;
40959;SDS011;27842;52.272;8.052;2024-01-15T06:41:46;6.80;;;1.73;;
40959;SDS011;27842;52.272;8.052;2024-01-15T06:44:12;10.20;;;1.90;;
40959;SDS011;27842;52.272;8.052;2024-01-15T07:13:47;8.90;;;2.20;;
40959;SDS011;27842;52.272;8.052;2024-01-15T07:31:20;10.07;;;1.80;;
40959;SDS011;27842;52.272;8.052;2024-01-15T07:33:46;7.37;;;1.73;;
40959;SDS011;27842;52.272;8.052;2024-01-15T07:36:12;8.37;;;2.20;;
40959;SDS011;27842;52.272;8.052;2024-01-15T07:38:37;10.63;;;1.87;;
40959;SDS011;27842;52.272;8.052;2024-01-15T07:41:03;8.37;;;1.90;;
40959;SDS011;27842;52.272;8.052;2024-01-15T07:43:29;8.83;;;1.97;;
40959;SDS011;27842;52.272;8.052;2024-01-15T07:45:54;11.53;;;2.10;;
40959;SDS011;27842;52.272;8.052;2024-01-15T07:48:20;9.30;;;2.03;;
40959;SDS011;27842;52.272;8.052;2024-01-15T07:50:46;13.03;;;2.43;;
40959;SDS011;27842;52.272;8.052;2024-01-15T07:53:11;8.10;;;1.73;;
40959;SDS011;27842;52.272;8.052;2024-01-15T07:55:37;11.80;;;1.70;;
40959;SDS011;27842;52.272;8.052;2024-01-15T07:58:02;4.80;;;1.70;;
40959;SDS011;27842;52.272;8.052;2024-01-15T08:07:04;8.30;;;1.77;;
40959;SDS011;27842;52.272;8.052;2024-01-15T08:09:32;5.47;;;1.30;;
40959;SDS011;27842;52.272;8.052;2024-01-15T08:11:57;8.63;;;2.53;;
40959;SDS011;27842;52.272;8.052;2024-01-15T08:14:23;9.83;;;2.13;;
40959;SDS011;27842;52.272;8.052;2024-01-15T08:16:49;7.10;;;1.90;;
40959;SDS011;27842;52.272;8.052;2024-01-15T08:19:15;7.20;;;1.80;;
40959;SDS011;27842;52.272;8.052;2024-01-15T08:21:41;7.20;;;1.97;;
40959;SDS011;27842;52.272;8.052;2024-01-15T08:24:08;4.23;;;1.47;;
40959;SDS011;27842;52.272;8.052;2024-01-15T08:26:33;5.20;;;1.53;;
40959;SDS011;27842;52.272;8.052;2024-01-15T08:28:59;6.43;;;1.57;;
40959;SDS011;27842;52.272;8.052;2024-01-15T08:31:25;4.30;;;1.67;;
40959;SDS011;27842;52.272;8.052;2024-01-15T08:33:52;4.30;;;1.50;;
40959;SDS011;27842;52.272;8.052;2024-01-15T08:36:21;7.00;;;1.77;;
40959;SDS011;27842;52.272;8.052;2024-01-15T08:38:54;4.73;;;1.77;;
40959;SDS011;27842;52.272;8.052;2024-01-15T08:41:20;6.60;;;1.57;;
40959;SDS011;27842;52.272;8.052;2024-01-15T09:04:15;7.27;;;2.53;;
40959;SDS011;27842;52.272;8.052;2024-01-15T09:06:42;7.90;;;2.77;;
40959;SDS011;27842;52.272;8.052;2024-01-15T09:09:24;7.13;;;2.70;;
40959;SDS011;27842;52.272;8.052;2024-01-15T09:11:50;7.27;;;2.77;;
40959;SDS011;27842;52.272;8.052;2024-01-15T09:14:16;9.60;;;2.80;;
40959;SDS011;27842;52.272;8.052;2024-01-15T09:16:42;8.10;;;2.87;;
40959;SDS011;27842;52.272;8.052;2024-01-15T09:19:08;8.67;;;2.80;;
40959;SDS011;27842;52.272;8.052;2024-01-15T09:21:33;7.60;;;2.90;;
40959;SDS011;27842;52.272;8.052;2024-01-15T09:23:59;10.37;;;3.13;;
40959;SDS011;27842;52.272;8.052;2024-01-15T09:26:25;7.90;;;2.80;;
40959;SDS011;27842;52.272;8.052;2024-01-15T09:28:51;10.50;;;3.17;;
40959;SDS011;27842;52.272;8.052;2024-01-15T09:31:17;14.80;;;3.40;;
40959;SDS011;27842;52.272;8.052;2024-01-15T09:33:43;11.77;;;3.47;;
40959;SDS011;27842;52.272;8.052;2024-01-15T09:36:09;13.77;;;3.63;;
40959;SDS011;27842;52.272;8.052;2024-01-15T09:38:34;11.90;;;3.47;;
40959;SDS011;27842;52.272;8.052;2024-01-15T09:41:00;10.47;;;3.13;;
40959;SDS011;27842;52.272;8.052;2024-01-15T09:43:26;16.93;;;3.30;;
40959;SDS011;27842;52.272;8.052;2024-01-15T09:45:51;11.17;;;3.23;;
40959;SDS011;27842;52.272;8.052;2024-01-15T09:48:19;11.97;;;3.20;;
40959;SDS011;27842;52.272;8.052;2024-01-15T09:50:45;9.83;;;3.07;;
40959;SDS011;27842;52.272;8.052;2024-01-15T09:53:10;13.17;;;3.17;;
40959;SDS011;27842;52.272;8.052;2024-01-15T09:55:39;17.53;;;3.57;;
40959;SDS011;27842;52.272;8.052;2024-01-15T09:58:04;10.53;;;2.97;;
40959;SDS011;27842;52.272;8.052;2024-01-15T10:00:30;13.73;;;3.20;;
40959;SDS011;27842;52.272;8.052;2024-01-15T10:02:57;13.73;;;3.20;;
40959;SDS011;27842;52.272;8.052;2024-01-15T10:05:25;13.60;;;2.80;;
40959;SDS011;27842;52.272;8.052;2024-01-15T10:07:51;11.17;;;2.47;;
40959;SDS011;27842;52.272;8.052;2024-01-15T10:10:18;15.37;;;3.27;;
40959;SDS011;27842;52.272;8.052;2024-01-15T10:12:43;16.67;;;3.40;;
40959;SDS011;27842;52.272;8.052;2024-01-15T10:15:13;10.13;;;2.60;;
40959;SDS011;27842;52.272;8.052;2024-01-15T10:17:39;14.93;;;3.00;;
40959;SDS011;27842;52.272;8.052;2024-01-15T10:20:11;10.40;;;2.80;;
40959;SDS011;27842;52.272;8.052;2024-01-15T10:22:41;13.70;;;2.70;;
40959;SDS011;27842;52.272;8.052;2024-01-15T10:25:11;11.17;;;2.67;;
40959;SDS011;27842;52.272;8.052;2024-01-15T10:27:43;13.13;;;3.40;;
40959;SDS011;27842;52.272;8.052;2024-01-15T10:30:09;18.60;;;3.72;;
40959;SDS011;27842;52.272;8.052;2024-01-15T11:45:28;7.27;;;2.07;;
40959;SDS011;27842;52.272;8.052;2024-01-15T11:50:41;12.60;;;2.63;;
40959;SDS011;27842;52.272;8.052;2024-01-15T11:53:36;16.60;;;3.53;;
40959;SDS011;27842;52.272;8.052;2024-01-15T11:56:01;11.50;;;3.37;;
40959;SDS011;27842;52.272;8.052;2024-01-15T11:58:28;8.93;;;2.58;;
40959;SDS011;27842;52.272;8.052;2024-01-15T12:00:54;12.80;;;2.27;;
40959;SDS011;27842;52.272;8.052;2024-01-15T12:03:21;9.00;;;2.77;;
40959;SDS011;27842;52.272;8.052;2024-01-15T12:05:47;9.03;;;2.30;;
40959;SDS011;27842;52.272;8.052;2024-01-15T12:08:13;11.50;;;2.63;;
40959;SDS011;27842;52.272;8.052;2024-01-15T12:10:41;12.07;;;4.00;;
40959;SDS011;27842;52.272;8.052;2024-01-15T12:13:09;16.42;;;4.45;;
40959;SDS011;27842;52.272;8.052;2024-01-15T12:15:37;15.07;;;3.93;;
40959;SDS011;27842;52.272;8.052;2024-01-15T12:18:07;11.20;;;3.07;;
40959;SDS011;27842;52.272;8.052;2024-01-15T12:20:33;11.83;;;3.40;;
40959;SDS011;27842;52.272;8.052;2024-01-15T12:22:59;12.50;;;2.90;;
40959;SDS011;27842;52.272;8.052;2024-01-15T12:25:26;18.30;;;3.80;;
40959;SDS011;27842;52.272;8.052;2024-01-15T12:27:53;22.73;;;6.73;;
40959;SDS011;27842;52.272;8.052;2024-01-15T12:40:25;12.33;;;2.60;;
40959;SDS011;27842;52.272;8.052;2024-01-15T12:42:51;12.23;;;2.77;;
40959;SDS011;27842;52.272;8.052;2024-01-15T12:45:16;11.87;;;2.80;;
40959;SDS011;27842;52.272;8.052;2024-01-15T12:47:43;11.10;;;2.63;;
40959;SDS011;27842;52.272;8.052;2024-01-15T12:56:57;11.63;;;1.97;;
40959;SDS011;27842;52.272;8.052;2024-01-15T12:59:23;11.10;;;2.40;;
40959;SDS011;27842;52.272;8.052;2024-01-15T13:01:49;12.10;;;3.50;;
40959;SDS011;27842;52.272;8.052;2024-01-15T13:04:21;9.67;;;2.43;;
40959;SDS011;27842;52.272;8.052;2024-01-15T13:06:48;8.90;;;2.10;;
40959;SDS011;27842;52.272;8.052;2024-01-15T13:09:17;6.28;;;1.92;;
40959;SDS011;27842;52.272;8.052;2024-01-15T13:11:44;13.13;;;3.20;;
40959;SDS011;27842;52.272;8.052;2024-01-15T13:14:10;8.40;;;2.10;;
40959;SDS011;27842;52.272;8.052;2024-01-15T13:16:36;12.23;;;2.37;;
40959;SDS011;27842;52.272;8.052;2024-01-15T13:19:01;15.50;;;3.43;;
40959;SDS011;27842;52.272;8.052;2024-01-15T13:21:29;14.53;;;4.00;;
40959;SDS011;27842;52.272;8.052;2024-01-15T13:23:55;10.83;;;2.97;;
40959;SDS011;27842;52.272;8.052;2024-01-15T13:26:21;14.27;;;2.40;;
40959;SDS011;27842;52.272;8.052;2024-01-15T13:28:46;8.90;;;2.20;;
40959;SDS011;27842;52.272;8.052;2024-01-15T13:31:12;6.60;;;1.90;;
40959;SDS011;27842;52.272;8.052;2024-01-15T13:33:38;14.27;;;3.60;;
40959;SDS011;27842;52.272;8.052;2024-01-15T13:36:04;9.80;;;3.00;;
40959;SDS011;27842;52.272;8.052;2024-01-15T14:32:39;18.02;;;6.10;;
40959;SDS011;27842;52.272;8.052;2024-01-15T14:35:42;7.70;;;2.10;;
40959;SDS011;27842;52.272;8.052;2024-01-15T14:38:07;8.73;;;1.80;;
40959;SDS011;27842;52.272;8.052;2024-01-15T14:47:00;7.17;;;1.70;;
40959;SDS011;27842;52.272;8.052;2024-01-15T14:49:26;6.03;;;1.80;;
40959;SDS011;27842;52.272;8.052;2024-01-15T14:51:51;8.07;;;2.13;;
40959;SDS011;27842;52.272;8.052;2024-01-15T14:54:17;7.27;;;1.70;;
40959;SDS011;27842;52.272;8.052;2024-01-15T14:56:43;8.23;;;2.10;;
40959;SDS011;27842;52.272;8.052;2024-01-15T14:59:08;7.40;;;2.23;;
40959;SDS011;27842;52.272;8.052;2024-01-15T15:18:49;9.47;;;1.97;;
40959;SDS011;27842;52.272;8.052;2024-01-15T15:21:14;8.17;;;1.77;;
40959;SDS011;27842;52.272;8.052;2024-01-15T15:23:40;9.50;;;1.83;;
40959;SDS011;27842;52.272;8.052;2024-01-15T15:26:06;12.00;;;2.10;;
40959;SDS011;27842;52.272;8.052;2024-01-15T15:28:32;9.63;;;1.87;;
40959;SDS011;27842;52.272;8.052;2024-01-15T15:31:01;12.33;;;2.30;;
40959;SDS011;27842;52.272;8.052;2024-01-15T15:33:27;9.47;;;2.50;;
40959;SDS011;27842;52.272;8.052;2024-01-15T15:35:53;8.83;;;2.00;;
40959;SDS011;27842;52.272;8.052;2024-01-15T15:38:19;9.77;;;2.20;;
40959;SDS011;27842;52.272;8.052;2024-01-15T15:40:45;12.10;;;3.00;;
40959;SDS011;27842;52.272;8.052;2024-01-15T15:43:10;7.20;;;1.80;;
40959;SDS011;27842;52.272;8.052;2024-01-15T15:45:36;8.93;;;2.10;;
40959;SDS011;27842;52.272;8.052;2024-01-15T15:48:02;12.37;;;2.50;;
40959;SDS011;27842;52.272;8.052;2024-01-15T15:50:27;11.10;;;3.30;;
40959;SDS011;27842;52.272;8.052;2024-01-15T15:53:02;21.53;;;6.07;;
40959;SDS011;27842;52.272;8.052;2024-01-15T15:56:35;14.90;;;4.10;;
40959;SDS011;27842;52.272;8.052;2024-01-15T16:03:33;11.50;;;2.57;;
40959;SDS011;27842;52.272;8.052;2024-01-15T16:05:59;13.03;;;2.50;;
40959;SDS011;27842;52.272;8.052;2024-01-15T16:08:25;14.27;;;3.43;;
40959;SDS011;27842;52.272;8.052;2024-01-15T16:11:00;12.53;;;2.90;;
40959;SDS011;27842;52.272;8.052;2024-01-15T16:13:25;14.53;;;3.17;;
40959;SDS011;27842;52.272;8.052;2024-01-15T16:15:51;13.30;;;2.77;;
40959;SDS011;27842;52.272;8.052;2024-01-15T16:18:17;12.00;;;3.13;;
40959;SDS011;27842;52.272;8.052;2024-01-15T16:20:42;13.37;;;3.90;;
40959;SDS011;27842;52.272;8.052;2024-01-15T16:23:08;17.87;;;4.83;;
40959;SDS011;27842;52.272;8.052;2024-01-15T16:25:33;14.13;;;3.17;;
40959;SDS011;27842;52.272;8.052;2024-01-15T16:28:03;14.10;;;3.63;;
40959;SDS011;27842;52.272;8.052;2024-01-15T16:30:29;11.40;;;2.60;;
40959;SDS011;27842;52.272;8.052;2024-01-15T16:32:55;10.80;;;2.60;;
40959;SDS011;27842;52.272;8.052;2024-01-15T16:35:20;14.03;;;2.83;;
40959;SDS011;27842;52.272;8.052;2024-01-15T16:37:46;12.60;;;2.73;;
40959;SDS011;27842;52.272;8.052;2024-01-15T16:40:12;14.90;;;2.50;;
40959;SDS011;27842;52.272;8.052;2024-01-15T16:42:37;16.20;;;2.67;;
40959;SDS011;27842;52.272;8.052;2024-01-15T16:45:03;10.47;;;2.20;;
40959;SDS011;27842;52.272;8.052;2024-01-15T16:47:29;10.07;;;2.63;;
40959;SDS011;27842;52.272;8.052;2024-01-15T16:49:55;8.40;;;2.10;;
40959;SDS011;27842;52.272;8.052;2024-01-15T16:52:20;9.33;;;2.10;;
40959;SDS011;27842;52.272;8.052;2024-01-15T16:54:47;9.83;;;2.83;;
40959;SDS011;27842;52.272;8.052;2024-01-15T16:57:15;16.03;;;3.90;;
40959;SDS011;27842;52.272;8.052;2024-01-15T16:59:41;17.55;;;5.40;;
40959;SDS011;27842;52.272;8.052;2024-01-15T17:02:06;20.73;;;5.77;;
40959;SDS011;27842;52.272;8.052;2024-01-15T17:04:32;24.13;;;7.87;;
40959;SDS011;27842;52.272;8.052;2024-01-15T17:06:58;19.77;;;6.23;;
40959;SDS011;27842;52.272;8.052;2024-01-15T17:09:24;22.20;;;6.93;;
40959;SDS011;27842;52.272;8.052;2024-01-15T17:11:50;19.73;;;4.20;;
40959;SDS011;27842;52.272;8.052;2024-01-15T17:14:15;12.30;;;3.37;;
40959;SDS011;27842;52.272;8.052;2024-01-15T17:16:42;14.97;;;3.17;;
40959;SDS011;27842;52.272;8.052;2024-01-15T17:19:09;15.70;;;3.07;;
40959;SDS011;27842;52.272;8.052;2024-01-15T17:21:36;17.43;;;3.57;;
40959;SDS011;27842;52.272;8.052;2024-01-15T17:24:01;22.33;;;8.10;;
40959;SDS011;27842;52.272;8.052;2024-01-15T17:26:28;32.33;;;11.77;;
40959;SDS011;27842;52.272;8.052;2024-01-15T17:28:53;37.43;;;11.70;;
40959;SDS011;27842;52.272;8.052;2024-01-15T17:31:20;38.07;;;12.80;;
40959;SDS011;27842;52.272;8.052;2024-01-15T17:33:45;23.97;;;7.37;;
40959;SDS011;27842;52.272;8.052;2024-01-15T17:36:12;18.90;;;5.23;;
40959;SDS011;27842;52.272;8.052;2024-01-15T17:38:43;20.77;;;5.23;;
40959;SDS011;27842;52.272;8.052;2024-01-15T17:45:35;21.63;;;8.07;;
40959;SDS011;27842;52.272;8.052;2024-01-15T17:48:01;23.33;;;6.20;;
40959;SDS011;27842;52.272;8.052;2024-01-15T17:50:33;24.73;;;8.33;;
40959;SDS011;27842;52.272;8.052;2024-01-15T17:57:28;20.03;;;4.80;;
40959;SDS011;27842;52.272;8.052;2024-01-15T17:59:54;14.60;;;3.43;;
40959;SDS011;27842;52.272;8.052;2024-01-15T18:02:20;14.53;;;3.30;;
40959;SDS011;27842;52.272;8.052;2024-01-15T18:04:45;13.47;;;3.27;;
40959;SDS011;27842;52.272;8.052;2024-01-15T18:07:11;18.90;;;3.07;;
40959;SDS011;27842;52.272;8.052;2024-01-15T18:09:36;17.07;;;3.60;;
40959;SDS011;27842;52.272;8.052;2024-01-15T18:12:05;16.73;;;4.03;;
40959;SDS011;27842;52.272;8.052;2024-01-15T18:18:28;12.13;;;2.67;;
40959;SDS011;27842;52.272;8.052;2024-01-15T18:20:54;16.13;;;2.70;;
40959;SDS011;27842;52.272;8.052;2024-01-15T18:23:19;19.67;;;4.10;;
40959;SDS011;27842;52.272;8.052;2024-01-15T18:25:45;27.40;;;8.50;;
40959;SDS011;27842;52.272;8.052;2024-01-15T18:28:11;23.40;;;6.83;;
40959;SDS011;27842;52.272;8.052;2024-01-15T18:30:39;27.08;;;8.38;;
40959;SDS011;27842;52.272;8.052;2024-01-15T18:33:05;14.63;;;3.30;;
40959;SDS011;27842;52.272;8.052;2024-01-15T18:35:32;12.27;;;2.70;;
40959;SDS011;27842;52.272;8.052;2024-01-15T18:37:58;25.47;;;8.97;;
40959;SDS011;27842;52.272;8.052;2024-01-15T18:40:23;21.53;;;7.43;;
40959;SDS011;27842;52.272;8.052;2024-01-15T18:42:49;24.20;;;7.73;;
40959;SDS011;27842;52.272;8.052;2024-01-15T18:45:15;11.77;;;3.00;;
40959;SDS011;27842;52.272;8.052;2024-01-15T18:47:41;12.50;;;2.67;;
40959;SDS011;27842;52.272;8.052;2024-01-15T18:50:07;10.00;;;2.50;;
40959;SDS011;27842;52.272;8.052;2024-01-15T18:52:33;12.53;;;2.67;;
40959;SDS011;27842;52.272;8.052;2024-01-15T18:55:00;7.67;;;2.40;;
40959;SDS011;27842;52.272;8.052;2024-01-15T18:57:25;11.37;;;2.57;;
40959;SDS011;27842;52.272;8.052;2024-01-15T18:59:51;10.50;;;2.30;;
40959;SDS011;27842;52.272;8.052;2024-01-15T19:02:16;17.97;;;5.20;;
40959;SDS011;27842;52.272;8.052;2024-01-15T19:04:42;21.47;;;7.23;;
40959;SDS011;27842;52.272;8.052;2024-01-15T19:07:08;21.53;;;7.77;;
40959;SDS011;27842;52.272;8.052;2024-01-15T19:09:33;9.80;;;3.30;;
40959;SDS011;27842;52.272;8.052;2024-01-15T19:11:59;7.67;;;2.50;;
40959;SDS011;27842;52.272;8.052;2024-01-15T19:14:25;9.33;;;2.40;;
40959;SDS011;27842;52.272;8.052;2024-01-15T19:16:50;12.23;;;2.87;;
40959;SDS011;27842;52.272;8.052;2024-01-15T19:19:16;10.97;;;2.90;;
40959;SDS011;27842;52.272;8.052;2024-01-15T19:21:42;11.47;;;2.37;;
40959;SDS011;27842;52.272;8.052;2024-01-15T19:24:07;21.47;;;5.60;;
40959;SDS011;27842;52.272;8.052;2024-01-15T19:26:33;18.93;;;5.10;;
40959;SDS011;27842;52.272;8.052;2024-01-15T19:28:59;25.37;;;8.00;;
40959;SDS011;27842;52.272;8.052;2024-01-15T19:31:24;15.73;;;4.60;;
40959;SDS011;27842;52.272;8.052;2024-01-15T19:33:51;13.53;;;3.53;;
